GreenTxt   -   no warnings

Nearby METAR Reports

 

ENZV - Stavanger
Actualización: 28/06/2017 22:20
Light rain, mostly cloudy
Light rain, mostly cloudy
 Viento del calm
Viento: Calma
Temperatura: 14°C
Rocío: 11°C
Humedad: 82%
Barómetro: 1006 hPa
Resumen: Lluvia débil
Clouds: Muy nuboso
Visibility: 10 km
2017/06/28 20:20 ENZV 282020Z 00000KT 9999 -RA FEW035 BKN088 14/11 Q1006
ENBR - Bergen
Actualización: 28/06/2017 22:20
Despejado
Despejado
 Viento del N
Viento: N 17 km/h
Temperatura: 16°C
Rocío: 8°C
Humedad: 59%
Barómetro: 1006 hPa
Resumen: Despejado
Visibility: greater than 10 km
2017/06/28 20:20 ENBR 282020Z 35009KT CAVOK 16/08 Q1006 RMK WIND 1200FT 01011KT
 
ENHD - Haugesund
Actualización: 28/06/2017 22:20
Despejado
Despejado
 Viento del NNE
Viento: NNE 11 km/h
Temperatura: 14°C
Rocío: 9°C
Humedad: 72%
Barómetro: 1006 hPa
Resumen: Despejado
Visibility: greater than 10 km
2017/06/28 20:20 ENHD 282020Z 02006KT CAVOK 14/09 Q1006
ENCN - Kristiansand
Actualización: 28/06/2017 22:20
Light rain, mostly cloudy
Light rain, mostly cloudy
 Viento del ENE
Viento: ENE 15 km/h
Temperatura: 15°C
Rocío: 10°C
Humedad: 72%
Barómetro: 1006 hPa
Resumen: Lluvia débil
Clouds: Muy nuboso
Visibility: 10 km
2017/06/28 20:20 ENCN 282020Z 06008KT 9999 -RA FEW026 SCT035 BKN055 15/10 Q1006
 
ENBO - Bodø
Actualización: 28/06/2017 22:20
Parcialmente nuboso
Parcialmente nuboso
 Viento del OSO
Viento: OSO 11 km/h
Temperatura: 10°C
Wind Chill: 8°C
Rocío: 6°C
Humedad: 76%
Barómetro: 1014 hPa
Clouds: Parcialmente nuboso
Visibility: 10 km
2017/06/28 20:20 ENBO 282020Z 24006KT 9999 FEW020CB SCT045 10/06 Q1014 NOSIG
ENKR - Kirkenes
Actualización: 28/06/2017 22:20
Muy nuboso
Muy nuboso
 Viento del varies
Viento: varies 4 km/h
Temperatura: 8°C
Rocío: 5°C
Humedad: 82%
Barómetro: 1012 hPa
Clouds: Muy nuboso
Visibility: 10 km
2017/06/28 20:20 ENKR 282020Z VRB02KT 9999 FEW032 BKN049 08/05 Q1012 RMK WIND 731FT 09003KT
 
ENVA - Trondheim
Actualización: 28/06/2017 22:20
Despejado
Despejado
 Viento del NE
Viento: NE 9 km/h
Temperatura: 14°C
Rocío: 4°C
Humedad: 51%
Barómetro: 1012 hPa
Resumen: Despejado
Visibility: greater than 10 km
2017/06/28 20:20 ENVA 282020Z 04005KT 360V080 CAVOK 14/04 Q1012 RMK WIND 670FT 05007KT
ENGM - Oslo
Actualización: 28/06/2017 22:20
Despejado
Despejado
 Viento del varies
Viento: varies 4 km/h
Temperatura: 18°C
Rocío: 1°C
Humedad: 32%
Barómetro: 1009 hPa
Resumen: Despejado
Visibility: greater than 10 km
2017/06/28 20:20 ENGM 282020Z VRB02KT CAVOK 18/01 Q1009 NOSIG